sensor_id;sensor_type;location;lat;lon;timestamp;pressure;altitude;pressure_sealevel;temperature;humidity
69796;BME280;57073;45.650;9.612;2023-09-18T00:03:04;99478.34;;;21.83;60.40
69796;BME280;57073;45.650;9.612;2023-09-18T00:08:05;99470.47;;;21.67;60.85
69796;BME280;57073;45.650;9.612;2023-09-18T00:13:05;99447.28;;;21.74;60.27
69796;BME280;57073;45.650;9.612;2023-09-18T00:18:05;99444.91;;;21.81;59.26
69796;BME280;57073;45.650;9.612;2023-09-18T00:23:06;99419.75;;;21.65;60.48
69796;BME280;57073;45.650;9.612;2023-09-18T00:28:06;99405.94;;;21.56;60.05
69796;BME280;57073;45.650;9.612;2023-09-18T00:33:06;99393.84;;;21.57;60.25
69796;BME280;57073;45.650;9.612;2023-09-18T00:38:07;99399.22;;;21.62;60.36
69796;BME280;57073;45.650;9.612;2023-09-18T00:43:08;99405.81;;;21.61;60.24
69796;BME280;57073;45.650;9.612;2023-09-18T00:48:08;99386.81;;;21.65;60.40
69796;BME280;57073;45.650;9.612;2023-09-18T00:53:11;99365.16;;;21.63;60.18
69796;BME280;57073;45.650;9.612;2023-09-18T00:58:13;99357.88;;;21.45;60.26
69796;BME280;57073;45.650;9.612;2023-09-18T01:03:14;99360.44;;;21.55;59.99
69796;BME280;57073;45.650;9.612;2023-09-18T01:08:18;99361.00;;;21.52;60.30
69796;BME280;57073;45.650;9.612;2023-09-18T01:13:30;99359.47;;;21.60;59.48
69796;BME280;57073;45.650;9.612;2023-09-18T01:18:35;99374.03;;;21.60;59.24
69796;BME280;57073;45.650;9.612;2023-09-18T01:23:35;99366.91;;;21.59;60.01
69796;BME280;57073;45.650;9.612;2023-09-18T01:28:36;99357.03;;;21.58;60.00
69796;BME280;57073;45.650;9.612;2023-09-18T01:33:37;99362.34;;;21.55;59.42
69796;BME280;57073;45.650;9.612;2023-09-18T01:38:38;99355.13;;;21.59;59.39
69796;BME280;57073;45.650;9.612;2023-09-18T01:43:39;99346.69;;;21.55;60.11
69796;BME280;57073;45.650;9.612;2023-09-18T01:48:45;99362.34;;;21.55;59.41
69796;BME280;57073;45.650;9.612;2023-09-18T01:53:46;99364.16;;;21.59;59.99
69796;BME280;57073;45.650;9.612;2023-09-18T01:58:46;99364.47;;;21.58;60.42
69796;BME280;57073;45.650;9.612;2023-09-18T02:03:47;99348.94;;;21.53;60.83
69796;BME280;57073;45.650;9.612;2023-09-18T02:08:47;99303.31;;;21.57;60.93
69796;BME280;57073;45.650;9.612;2023-09-18T02:13:47;99289.66;;;21.52;60.17
69796;BME280;57073;45.650;9.612;2023-09-18T02:18:48;99293.56;;;21.51;59.79
69796;BME280;57073;45.650;9.612;2023-09-18T02:23:52;99302.41;;;21.48;60.10
69796;BME280;57073;45.650;9.612;2023-09-18T02:28:53;99291.66;;;21.38;60.72
69796;BME280;57073;45.650;9.612;2023-09-18T02:33:54;99278.50;;;21.48;60.66
69796;BME280;57073;45.650;9.612;2023-09-18T02:38:54;99277.63;;;21.39;61.04
69796;BME280;57073;45.650;9.612;2023-09-18T02:43:55;99279.66;;;21.47;60.91
69796;BME280;57073;45.650;9.612;2023-09-18T02:48:55;99285.84;;;21.53;60.79
69796;BME280;57073;45.650;9.612;2023-09-18T02:53:55;99277.69;;;21.48;60.26
69796;BME280;57073;45.650;9.612;2023-09-18T02:58:56;99282.69;;;21.46;60.51
69796;BME280;57073;45.650;9.612;2023-09-18T03:03:56;99281.25;;;21.48;60.97
69796;BME280;57073;45.650;9.612;2023-09-18T03:08:57;99294.38;;;21.38;59.50
69796;BME280;57073;45.650;9.612;2023-09-18T03:13:57;99281.66;;;21.42;59.88
69796;BME280;57073;45.650;9.612;2023-09-18T03:18:58;99286.84;;;21.43;58.60
69796;BME280;57073;45.650;9.612;2023-09-18T03:23:59;99286.16;;;21.38;59.04
69796;BME280;57073;45.650;9.612;2023-09-18T03:28:59;99291.66;;;21.38;58.49
69796;BME280;57073;45.650;9.612;2023-09-18T03:34:00;99278.22;;;21.36;58.90
69796;BME280;57073;45.650;9.612;2023-09-18T03:39:00;99290.03;;;21.37;59.36
69796;BME280;57073;45.650;9.612;2023-09-18T03:44:01;99305.34;;;21.38;59.56
69796;BME280;57073;45.650;9.612;2023-09-18T03:49:02;99310.94;;;21.33;61.09
69796;BME280;57073;45.650;9.612;2023-09-18T03:54:03;99319.06;;;21.38;61.28
69796;BME280;57073;45.650;9.612;2023-09-18T03:59:03;99320.22;;;21.37;61.08
69796;BME280;57073;45.650;9.612;2023-09-18T04:04:05;99308.84;;;21.29;60.53
69796;BME280;57073;45.650;9.612;2023-09-18T04:09:06;99308.31;;;21.27;60.34
69796;BME280;57073;45.650;9.612;2023-09-18T04:14:06;99303.78;;;21.23;60.10
69796;BME280;57073;45.650;9.612;2023-09-18T04:19:07;99301.63;;;21.20;59.39
69796;BME280;57073;45.650;9.612;2023-09-18T04:24:08;99301.13;;;21.32;59.64
69796;BME280;57073;45.650;9.612;2023-09-18T04:29:08;99311.16;;;21.36;59.32
69796;BME280;57073;45.650;9.612;2023-09-18T04:34:09;99303.22;;;21.35;60.08
69796;BME280;57073;45.650;9.612;2023-09-18T04:39:10;99308.91;;;21.38;59.86
69796;BME280;57073;45.650;9.612;2023-09-18T04:44:10;99290.94;;;21.46;59.57
69796;BME280;57073;45.650;9.612;2023-09-18T04:49:12;99287.16;;;21.42;59.53
69796;BME280;57073;45.650;9.612;2023-09-18T04:54:13;99274.50;;;21.32;59.77
69796;BME280;57073;45.650;9.612;2023-09-18T04:59:13;99270.69;;;21.42;59.30
69796;BME280;57073;45.650;9.612;2023-09-18T05:04:14;99262.91;;;21.35;58.93
69796;BME280;57073;45.650;9.612;2023-09-18T05:09:15;99258.50;;;21.48;58.21
69796;BME280;57073;45.650;9.612;2023-09-18T05:14:15;99253.13;;;21.20;60.41
69796;BME280;57073;45.650;9.612;2023-09-18T05:19:16;99269.16;;;21.13;60.17
69796;BME280;57073;45.650;9.612;2023-09-18T05:24:16;99277.53;;;21.30;60.03
69796;BME280;57073;45.650;9.612;2023-09-18T05:29:17;99291.66;;;21.38;59.87
69796;BME280;57073;45.650;9.612;2023-09-18T05:34:17;99285.13;;;21.47;58.78
69796;BME280;57073;45.650;9.612;2023-09-18T05:39:17;99279.66;;;21.47;59.46
69796;BME280;57073;45.650;9.612;2023-09-18T05:44:18;99284.78;;;21.63;59.17
69796;BME280;57073;45.650;9.612;2023-09-18T05:49:18;99286.91;;;21.66;58.56
69796;BME280;57073;45.650;9.612;2023-09-18T05:54:19;99291.94;;;21.73;59.14
69796;BME280;57073;45.650;9.612;2023-09-18T05:59:20;99296.22;;;21.79;58.50
69796;BME280;57073;45.650;9.612;2023-09-18T06:04:20;99287.28;;;21.73;58.41
69796;BME280;57073;45.650;9.612;2023-09-18T06:09:21;99272.06;;;21.67;58.13
69796;BME280;57073;45.650;9.612;2023-09-18T06:14:22;99240.69;;;21.59;59.33
69796;BME280;57073;45.650;9.612;2023-09-18T06:19:23;99190.81;;;20.98;61.32
69796;BME280;57073;45.650;9.612;2023-09-18T06:24:23;99155.44;;;21.10;61.63
69796;BME280;57073;45.650;9.612;2023-09-18T06:29:23;99159.88;;;21.20;61.41
69796;BME280;57073;45.650;9.612;2023-09-18T06:34:24;99195.16;;;21.36;60.58
69796;BME280;57073;45.650;9.612;2023-09-18T06:39:25;99211.78;;;21.53;59.78
69796;BME280;57073;45.650;9.612;2023-09-18T06:44:26;99220.09;;;21.48;59.70
69796;BME280;57073;45.650;9.612;2023-09-18T06:49:26;99219.19;;;21.53;59.96
69796;BME280;57073;45.650;9.612;2023-09-18T06:54:27;99222.41;;;21.55;59.75
69796;BME280;57073;45.650;9.612;2023-09-18T06:59:28;99185.16;;;21.40;60.78
69796;BME280;57073;45.650;9.612;2023-09-18T07:04:30;99171.75;;;21.38;61.06
69796;BME280;57073;45.650;9.612;2023-09-18T07:09:30;99158.69;;;21.35;61.14
69796;BME280;57073;45.650;9.612;2023-09-18T07:14:30;99153.13;;;21.72;60.01
69796;BME280;57073;45.650;9.612;2023-09-18T07:19:31;99153.22;;;21.89;59.16
69796;BME280;57073;45.650;9.612;2023-09-18T07:24:32;99166.63;;;21.91;58.69
69796;BME280;57073;45.650;9.612;2023-09-18T07:29:32;99155.38;;;22.01;58.68
69796;BME280;57073;45.650;9.612;2023-09-18T07:34:34;99148.00;;;21.79;58.46
69796;BME280;57073;45.650;9.612;2023-09-18T07:39:35;99156.75;;;21.81;58.97
69796;BME280;57073;45.650;9.612;2023-09-18T07:44:36;99156.44;;;21.60;58.85
69796;BME280;57073;45.650;9.612;2023-09-18T07:49:36;99166.09;;;21.80;57.81
69796;BME280;57073;45.650;9.612;2023-09-18T07:54:36;99165.59;;;21.78;58.85
69796;BME280;57073;45.650;9.612;2023-09-18T07:59:37;99168.47;;;21.73;58.23
69796;BME280;57073;45.650;9.612;2023-09-18T08:04:39;99175.09;;;21.72;59.18
69796;BME280;57073;45.650;9.612;2023-09-18T08:09:39;99190.22;;;21.69;59.38
69796;BME280;57073;45.650;9.612;2023-09-18T08:14:40;99194.59;;;21.70;60.27
69796;BME280;57073;45.650;9.612;2023-09-18T08:19:40;99206.13;;;21.58;60.62
69796;BME280;57073;45.650;9.612;2023-09-18T08:24:41;99191.13;;;21.56;60.40
69796;BME280;57073;45.650;9.612;2023-09-18T08:29:43;99178.69;;;21.36;61.36
69796;BME280;57073;45.650;9.612;2023-09-18T08:34:43;99174.34;;;21.57;60.20
69796;BME280;57073;45.650;9.612;2023-09-18T08:39:44;99165.09;;;21.30;61.90
69796;BME280;57073;45.650;9.612;2023-09-18T08:44:45;99174.34;;;21.57;60.96
69796;BME280;57073;45.650;9.612;2023-09-18T08:49:48;99156.75;;;21.58;61.58
69796;BME280;57073;45.650;9.612;2023-09-18T08:54:51;99146.78;;;21.40;61.79
69796;BME280;57073;45.650;9.612;2023-09-18T08:59:52;99152.63;;;21.47;61.21
69796;BME280;57073;45.650;9.612;2023-09-18T09:04:54;99151.28;;;21.90;60.91
69796;BME280;57073;45.650;9.612;2023-09-18T09:09:54;99152.28;;;21.94;60.69
69796;BME280;57073;45.650;9.612;2023-09-18T09:15:02;99160.31;;;21.90;60.06
69796;BME280;57073;45.650;9.612;2023-09-18T09:20:11;99162.97;;;21.50;60.66
69796;BME280;57073;45.650;9.612;2023-09-18T09:25:26;99153.56;;;21.65;60.22
69796;BME280;57073;45.650;9.612;2023-09-18T09:30:28;99141.91;;;21.82;60.18
69796;BME280;57073;45.650;9.612;2023-09-18T09:35:31;99136.81;;;21.66;60.35
69796;BME280;57073;45.650;9.612;2023-09-18T09:40:32;99114.03;;;21.97;59.80
69796;BME280;57073;45.650;9.612;2023-09-18T09:45:33;99119.88;;;22.13;59.40
69796;BME280;57073;45.650;9.612;2023-09-18T09:50:47;99115.03;;;22.10;59.79
69796;BME280;57073;45.650;9.612;2023-09-18T09:55:54;99116.94;;;22.01;60.02
69796;BME280;57073;45.650;9.612;2023-09-18T10:00:56;99124.69;;;21.99;60.27
69796;BME280;57073;45.650;9.612;2023-09-18T10:06:00;99126.19;;;22.14;60.06
69796;BME280;57073;45.650;9.612;2023-09-18T10:11:06;99132.88;;;22.30;59.10
69796;BME280;57073;45.650;9.612;2023-09-18T10:16:09;99127.97;;;22.10;59.97
69796;BME280;57073;45.650;9.612;2023-09-18T10:26:22;99143.44;;;22.46;60.48
69796;BME280;57073;45.650;9.612;2023-09-18T10:31:26;99135.72;;;22.16;61.42
69796;BME280;57073;45.650;9.612;2023-09-18T10:36:29;99137.13;;;22.45;61.03
69796;BME280;57073;45.650;9.612;2023-09-18T10:41:30;99141.44;;;21.88;62.82
69796;BME280;57073;45.650;9.612;2023-09-18T10:46:31;99134.22;;;22.01;62.64
69796;BME280;57073;45.650;9.612;2023-09-18T10:51:32;99139.09;;;22.53;60.40
69796;BME280;57073;45.650;9.612;2023-09-18T10:56:38;99139.75;;;22.59;60.50
69796;BME280;57073;45.650;9.612;2023-09-18T11:01:40;99117.94;;;22.71;59.95
69796;BME280;57073;45.650;9.612;2023-09-18T11:07:09;99119.19;;;22.65;59.06
69796;BME280;57073;45.650;9.612;2023-09-18T11:12:19;99116.81;;;22.63;60.17
69796;BME280;57073;45.650;9.612;2023-09-18T11:22:32;99105.53;;;23.00;58.47
69796;BME280;57073;45.650;9.612;2023-09-18T11:27:52;99120.06;;;23.18;58.41
69796;BME280;57073;45.650;9.612;2023-09-18T11:32:55;99111.47;;;22.85;59.46
69796;BME280;57073;45.650;9.612;2023-09-18T11:38:09;99117.91;;;22.89;59.28
69796;BME280;57073;45.650;9.612;2023-09-18T11:43:24;99125.03;;;22.81;59.91
69796;BME280;57073;45.650;9.612;2023-09-18T11:48:27;99100.63;;;22.79;59.79
69796;BME280;57073;45.650;9.612;2023-09-18T11:53:34;99104.38;;;23.01;57.51
69796;BME280;57073;45.650;9.612;2023-09-18T11:58:46;99087.72;;;22.80;58.53
69796;BME280;57073;45.650;9.612;2023-09-18T12:03:53;99075.25;;;22.74;59.40
69796;BME280;57073;45.650;9.612;2023-09-18T12:08:53;99070.25;;;22.67;59.88
69796;BME280;57073;45.650;9.612;2023-09-18T12:13:54;99064.88;;;22.71;59.66
69796;BME280;57073;45.650;9.612;2023-09-18T12:18:54;99059.09;;;22.55;59.52
69796;BME280;57073;45.650;9.612;2023-09-18T12:23:55;99043.06;;;22.74;59.73
69796;BME280;57073;45.650;9.612;2023-09-18T12:28:55;99045.50;;;22.85;59.17
69796;BME280;57073;45.650;9.612;2023-09-18T12:33:55;99024.66;;;22.57;59.47
69796;BME280;57073;45.650;9.612;2023-09-18T12:38:56;99034.03;;;22.56;58.98
69796;BME280;57073;45.650;9.612;2023-09-18T12:44:05;99025.94;;;22.77;59.21
69796;BME280;57073;45.650;9.612;2023-09-18T12:54:19;99026.59;;;22.66;58.80
69796;BME280;57073;45.650;9.612;2023-09-18T12:59:20;99009.91;;;22.79;59.17
69796;BME280;57073;45.650;9.612;2023-09-18T13:04:20;99014.63;;;22.44;59.45
69796;BME280;57073;45.650;9.612;2023-09-18T13:09:22;99012.84;;;22.57;59.76
69796;BME280;57073;45.650;9.612;2023-09-18T13:14:24;99010.59;;;22.76;58.59
69796;BME280;57073;45.650;9.612;2023-09-18T13:19:25;98998.81;;;22.58;58.81
69796;BME280;57073;45.650;9.612;2023-09-18T13:24:29;98993.41;;;22.79;58.79
69796;BME280;57073;45.650;9.612;2023-09-18T13:29:30;98978.09;;;22.52;58.64
69796;BME280;57073;45.650;9.612;2023-09-18T13:34:30;98987.00;;;22.40;59.72
69796;BME280;57073;45.650;9.612;2023-09-18T13:39:31;98973.75;;;22.60;59.40
69796;BME280;57073;45.650;9.612;2023-09-18T13:44:31;98984.72;;;22.95;59.00
69796;BME280;57073;45.650;9.612;2023-09-18T13:49:32;98969.34;;;22.76;60.04
69796;BME280;57073;45.650;9.612;2023-09-18T13:54:32;98948.03;;;22.64;61.44
69796;BME280;57073;45.650;9.612;2023-09-18T13:59:32;98936.72;;;22.49;61.96
69796;BME280;57073;45.650;9.612;2023-09-18T14:04:33;98897.63;;;22.52;62.67
69796;BME280;57073;45.650;9.612;2023-09-18T14:09:34;98897.03;;;23.02;60.18
69796;BME280;57073;45.650;9.612;2023-09-18T14:14:35;98894.09;;;23.07;60.44
69796;BME280;57073;45.650;9.612;2023-09-18T14:19:35;98884.25;;;22.97;60.13
69796;BME280;57073;45.650;9.612;2023-09-18T14:24:38;98876.84;;;22.80;60.52
69796;BME280;57073;45.650;9.612;2023-09-18T14:29:38;98863.63;;;23.12;60.41
69796;BME280;57073;45.650;9.612;2023-09-18T14:34:38;98845.81;;;23.18;59.65
69796;BME280;57073;45.650;9.612;2023-09-18T14:39:39;98865.84;;;22.98;59.55
69796;BME280;57073;45.650;9.612;2023-09-18T14:44:39;98854.69;;;22.86;60.48
69796;BME280;57073;45.650;9.612;2023-09-18T14:49:44;98838.00;;;22.43;61.88
69796;BME280;57073;45.650;9.612;2023-09-18T14:54:46;98833.66;;;22.90;60.88
69796;BME280;57073;45.650;9.612;2023-09-18T14:59:46;98822.41;;;22.65;61.33
69796;BME280;57073;45.650;9.612;2023-09-18T15:04:50;98798.44;;;22.27;61.98
69796;BME280;57073;45.650;9.612;2023-09-18T15:09:50;98768.13;;;22.62;60.98
69796;BME280;57073;45.650;9.612;2023-09-18T15:14:50;98795.38;;;22.37;61.28
69796;BME280;57073;45.650;9.612;2023-09-18T15:19:51;98786.81;;;22.30;62.12
69796;BME280;57073;45.650;9.612;2023-09-18T15:24:55;98803.44;;;22.34;61.51
69796;BME280;57073;45.650;9.612;2023-09-18T15:29:55;98817.66;;;22.44;61.41
69796;BME280;57073;45.650;9.612;2023-09-18T15:34:56;98802.97;;;22.23;62.18
69796;BME280;57073;45.650;9.612;2023-09-18T15:39:56;98798.16;;;22.02;63.28
69796;BME280;57073;45.650;9.612;2023-09-18T15:44:56;98755.88;;;21.95;63.60
69796;BME280;57073;45.650;9.612;2023-09-18T15:49:57;98755.06;;;21.94;64.63
69796;BME280;57073;45.650;9.612;2023-09-18T15:54:58;98776.25;;;21.59;65.02
69796;BME280;57073;45.650;9.612;2023-09-18T16:00:03;98780.91;;;21.76;65.25
69796;BME280;57073;45.650;9.612;2023-09-18T16:05:08;98789.09;;;22.11;63.53
69796;BME280;57073;45.650;9.612;2023-09-18T16:10:09;98756.53;;;21.83;64.89
69796;BME280;57073;45.650;9.612;2023-09-18T16:15:10;98766.41;;;21.66;65.42
69796;BME280;57073;45.650;9.612;2023-09-18T16:20:10;98795.09;;;21.69;65.62
69796;BME280;57073;45.650;9.612;2023-09-18T16:25:11;98768.16;;;21.88;65.09
69796;BME280;57073;45.650;9.612;2023-09-18T16:30:12;98804.28;;;22.08;66.01
69796;BME280;57073;45.650;9.612;2023-09-18T16:35:12;98835.91;;;22.49;68.28
69796;BME280;57073;45.650;9.612;2023-09-18T16:40:13;98835.41;;;22.47;66.81
69796;BME280;57073;45.650;9.612;2023-09-18T16:45:13;98875.50;;;22.39;68.58
69796;BME280;57073;45.650;9.612;2023-09-18T16:50:14;98875.97;;;22.41;70.39
69796;BME280;57073;45.650;9.612;2023-09-18T16:55:15;98882.78;;;22.35;68.17
69796;BME280;57073;45.650;9.612;2023-09-18T17:00:15;98881.31;;;21.85;66.02
69796;BME280;57073;45.650;9.612;2023-09-18T17:05:16;98895.91;;;21.37;65.81
69796;BME280;57073;45.650;9.612;2023-09-18T17:10:16;98886.78;;;21.10;66.65
69796;BME280;57073;45.650;9.612;2023-09-18T17:15:17;98870.59;;;21.00;66.09
69796;BME280;57073;45.650;9.612;2023-09-18T17:20:18;98870.47;;;20.74;68.34
69796;BME280;57073;45.650;9.612;2023-09-18T17:25:19;98894.28;;;20.65;67.07
69796;BME280;57073;45.650;9.612;2023-09-18T17:30:19;98889.91;;;20.64;67.37
69796;BME280;57073;45.650;9.612;2023-09-18T17:35:19;98884.47;;;20.41;68.02
69796;BME280;57073;45.650;9.612;2023-09-18T17:40:20;98873.41;;;20.46;67.98
69796;BME280;57073;45.650;9.612;2023-09-18T17:45:20;98901.72;;;20.19;68.37
69796;BME280;57073;45.650;9.612;2023-09-18T17:50:21;98918.13;;;20.19;69.01
69796;BME280;57073;45.650;9.612;2023-09-18T17:55:21;98914.75;;;20.22;68.70
69796;BME280;57073;45.650;9.612;2023-09-18T18:00:21;98917.25;;;20.10;69.25
69796;BME280;57073;45.650;9.612;2023-09-18T18:05:22;98932.50;;;20.25;68.83
69796;BME280;57073;45.650;9.612;2023-09-18T18:10:23;98929.44;;;19.90;69.40
69796;BME280;57073;45.650;9.612;2023-09-18T18:15:24;98928.50;;;20.08;68.62
69796;BME280;57073;45.650;9.612;2023-09-18T18:20:24;98936.84;;;19.89;70.13
69796;BME280;57073;45.650;9.612;2023-09-18T18:25:24;98940.13;;;19.64;70.84
69796;BME280;57073;45.650;9.612;2023-09-18T18:30:25;98951.16;;;19.86;69.63
69796;BME280;57073;45.650;9.612;2023-09-18T18:35:25;98951.47;;;20.21;68.41
69796;BME280;57073;45.650;9.612;2023-09-18T18:40:26;98967.09;;;20.21;68.45
69796;BME280;57073;45.650;9.612;2023-09-18T18:45:27;98966.03;;;19.94;68.69
69796;BME280;57073;45.650;9.612;2023-09-18T18:50:27;98963.69;;;20.01;68.96
69796;BME280;57073;45.650;9.612;2023-09-18T18:55:29;98969.09;;;19.51;71.36
69796;BME280;57073;45.650;9.612;2023-09-18T19:00:29;98966.22;;;19.84;70.37
69796;BME280;57073;45.650;9.612;2023-09-18T19:05:30;98963.19;;;19.71;70.54
69796;BME280;57073;45.650;9.612;2023-09-18T19:10:30;98958.47;;;19.77;70.68
69796;BME280;57073;45.650;9.612;2023-09-18T19:15:31;98955.84;;;19.58;71.81
69796;BME280;57073;45.650;9.612;2023-09-18T19:20:31;98957.72;;;19.71;70.74
69796;BME280;57073;45.650;9.612;2023-09-18T19:25:32;98949.03;;;19.69;71.43
69796;BME280;57073;45.650;9.612;2023-09-18T19:30:32;98962.78;;;19.92;70.04
69796;BME280;57073;45.650;9.612;2023-09-18T19:35:33;98958.13;;;19.78;70.56
69796;BME280;57073;45.650;9.612;2023-09-18T19:40:33;98943.56;;;19.28;72.56
69796;BME280;57073;45.650;9.612;2023-09-18T19:45:34;98951.47;;;19.57;71.50
69796;BME280;57073;45.650;9.612;2023-09-18T19:50:35;98942.34;;;19.62;71.34
69796;BME280;57073;45.650;9.612;2023-09-18T19:55:36;98948.81;;;19.80;70.92
69796;BME280;57073;45.650;9.612;2023-09-18T20:00:36;98944.94;;;19.81;71.07
69796;BME280;57073;45.650;9.612;2023-09-18T20:05:37;98953.06;;;19.86;70.25
69796;BME280;57073;45.650;9.612;2023-09-18T20:10:37;98957.72;;;19.85;69.97
69796;BME280;57073;45.650;9.612;2023-09-18T20:15:37;98960.38;;;19.76;70.91
69796;BME280;57073;45.650;9.612;2023-09-18T20:20:38;98935.63;;;19.82;70.70
69796;BME280;57073;45.650;9.612;2023-09-18T20:25:38;98936.25;;;19.78;70.42
69796;BME280;57073;45.650;9.612;2023-09-18T20:30:38;98942.50;;;19.93;70.09
69796;BME280;57073;45.650;9.612;2023-09-18T20:35:39;98949.59;;;19.94;71.55
69796;BME280;57073;45.650;9.612;2023-09-18T20:40:39;98933.41;;;19.84;70.29
69796;BME280;57073;45.650;9.612;2023-09-18T20:45:41;98939.63;;;19.75;69.98
69796;BME280;57073;45.650;9.612;2023-09-18T20:50:42;98932.78;;;19.87;70.64
69796;BME280;57073;45.650;9.612;2023-09-18T20:55:42;98914.94;;;19.89;71.04
69796;BME280;57073;45.650;9.612;2023-09-18T21:00:43;98903.31;;;19.84;70.88
69796;BME280;57073;45.650;9.612;2023-09-18T21:05:44;98911.97;;;19.77;70.88
69796;BME280;57073;45.650;9.612;2023-09-18T21:10:45;98930.38;;;19.71;71.09
69796;BME280;57073;45.650;9.612;2023-09-18T21:15:45;98922.50;;;19.70;71.32
69796;BME280;57073;45.650;9.612;2023-09-18T21:20:47;98931.81;;;19.69;71.71
69796;BME280;57073;45.650;9.612;2023-09-18T21:25:49;98910.53;;;19.66;72.09
69796;BME280;57073;45.650;9.612;2023-09-18T21:30:50;98907.00;;;19.65;72.19
69796;BME280;57073;45.650;9.612;2023-09-18T21:35:50;98907.19;;;19.69;70.94
69796;BME280;57073;45.650;9.612;2023-09-18T21:40:51;98915.59;;;19.58;71.69
69796;BME280;57073;45.650;9.612;2023-09-18T21:45:52;98912.56;;;19.60;72.07
69796;BME280;57073;45.650;9.612;2023-09-18T21:50:52;98919.69;;;19.61;71.53
69796;BME280;57073;45.650;9.612;2023-09-18T21:55:53;98932.44;;;19.52;71.59
69796;BME280;57073;45.650;9.612;2023-09-18T22:00:59;98935.47;;;19.50;72.35
69796;BME280;57073;45.650;9.612;2023-09-18T22:06:00;98939.13;;;19.59;71.54
69796;BME280;57073;45.650;9.612;2023-09-18T22:11:00;98931.81;;;19.55;70.98
69796;BME280;57073;45.650;9.612;2023-09-18T22:16:01;98922.31;;;19.52;71.17
69796;BME280;57073;45.650;9.612;2023-09-18T22:21:03;98925.34;;;19.51;71.68
69796;BME280;57073;45.650;9.612;2023-09-18T22:26:03;98926.59;;;19.45;71.56
69796;BME280;57073;45.650;9.612;2023-09-18T22:31:04;98941.56;;;19.47;71.25
69796;BME280;57073;45.650;9.612;2023-09-18T22:36:04;98934.28;;;19.43;72.04
69796;BME280;57073;45.650;9.612;2023-09-18T22:57:25;98944.78;;;19.49;71.69
69796;BME280;57073;45.650;9.612;2023-09-18T23:02:29;98936.69;;;19.44;72.51
69796;BME280;57073;45.650;9.612;2023-09-18T23:07:29;98940.25;;;19.45;72.10
69796;BME280;57073;45.650;9.612;2023-09-18T23:12:33;98937.13;;;19.37;72.02
69796;BME280;57073;45.650;9.612;2023-09-18T23:17:34;98933.16;;;19.44;71.87
69796;BME280;57073;45.650;9.612;2023-09-18T23:22:35;98932.66;;;19.42;72.19
69796;BME280;57073;45.650;9.612;2023-09-18T23:27:41;98923.84;;;19.31;71.26
69796;BME280;57073;45.650;9.612;2023-09-18T23:32:41;98930.41;;;19.30;70.78
69796;BME280;57073;45.650;9.612;2023-09-18T23:37:43;98927.28;;;19.36;70.74
69796;BME280;57073;45.650;9.612;2023-09-18T23:42:43;98919.97;;;19.46;70.28
69796;BME280;57073;45.650;9.612;2023-09-18T23:47:47;98915.44;;;19.41;70.80
69796;BME280;57073;45.650;9.612;2023-09-18T23:52:47;98921.50;;;19.38;70.98
69796;BME280;57073;45.650;9.612;2023-09-18T23:57:54;98920.66;;;19.24;71.69
